Time;durP1;ratioP1;P1;durP2;ratioP2;P2;SDS_P1;SDS_P2;PMS_P1;PMS_P2;Temp;Humidity;BMP_temperature;BMP_pressure;BME280_temperature;BME280_humidity;BME280_pressure;Samples;Min_cycle;Max_cycle;Signal;HPM_P1;HPM_P2
2023/04/03 00:00:12;;;;;;;5.63;1.27;;;2.70;99.90;;;;;;4134448;28;20517;-72
2023/04/03 00:02:14;;;;;;;5.33;1.50;;;2.70;99.90;;;;;;4136101;28;20861;-72
2023/04/03 00:04:17;;;;;;;4.40;1.27;;;2.60;99.90;;;;;;4140068;28;21098;-73
2023/04/03 00:06:21;;;;;;;4.33;1.17;;;2.60;99.90;;;;;;4132474;28;20506;-72
2023/04/03 00:08:23;;;;;;;3.63;1.27;;;2.60;99.90;;;;;;4131938;28;20454;-72
2023/04/03 00:10:25;;;;;;;6.40;1.20;;;2.60;99.90;;;;;;4135700;28;20460;-72
2023/04/03 00:12:27;;;;;;;2.47;1.03;;;2.60;99.90;;;;;;4135815;28;20510;-72
2023/04/03 00:14:29;;;;;;;4.60;1.33;;;2.50;99.90;;;;;;4137476;28;20475;-72
2023/04/03 00:16:31;;;;;;;5.97;1.07;;;2.50;99.90;;;;;;4119269;28;20476;-72
2023/04/03 00:18:33;;;;;;;5.10;1.00;;;2.50;99.90;;;;;;4136562;28;21024;-72
2023/04/03 00:20:36;;;;;;;2.93;1.07;;;2.50;99.90;;;;;;4134402;28;20476;-72
2023/04/03 00:22:39;;;;;;;4.03;1.00;;;2.50;99.90;;;;;;4134410;28;20483;-73
2023/04/03 00:24:41;;;;;;;2.57;1.10;;;2.50;99.90;;;;;;4135269;28;20571;-72
2023/04/03 00:26:43;;;;;;;3.70;1.10;;;2.40;99.90;;;;;;4119308;28;20463;-72
2023/04/03 00:28:45;;;;;;;3.40;1.23;;;2.40;99.90;;;;;;4128193;28;20481;-73
2023/04/03 00:30:47;;;;;;;3.10;1.10;;;2.40;99.90;;;;;;4135750;28;20451;-73
2023/04/03 00:32:50;;;;;;;3.00;1.00;;;2.40;99.90;;;;;;4134292;28;20478;-72
2023/04/03 00:34:52;;;;;;;5.30;1.93;;;2.40;99.90;;;;;;4136749;28;20482;-71
2023/04/03 00:36:54;;;;;;;5.50;1.13;;;2.40;99.90;;;;;;4136630;28;20473;-73
2023/04/03 00:38:57;;;;;;;4.20;1.20;;;2.30;99.90;;;;;;4137342;28;20466;-71
2023/04/03 00:40:59;;;;;;;2.37;1.03;;;2.30;99.90;;;;;;4134129;28;20901;-72
2023/04/03 00:43:01;;;;;;;5.60;2.37;;;2.50;99.90;;;;;;4135632;28;20490;-72
2023/04/03 00:45:30;;;;;;;3.60;1.20;;;2.30;99.90;;;;;;4134176;28;20503;-72
2023/04/03 00:47:33;;;;;;;4.27;1.40;;;2.30;99.90;;;;;;4134078;28;20449;-72
2023/04/03 00:49:36;;;;;;;5.17;1.30;;;2.20;99.90;;;;;;4137375;28;20945;-72
2023/04/03 00:51:38;;;;;;;6.47;0.80;;;2.20;99.90;;;;;;4133598;28;20558;-73
2023/04/03 00:53:44;;;;;;;2.47;1.30;;;2.60;99.90;;;;;;4136858;28;20538;-72
2023/04/03 00:55:49;;;;;;;3.37;1.07;;;2.10;99.90;;;;;;4137894;28;20491;-72
2023/04/03 00:57:51;;;;;;;3.23;1.00;;;2.10;99.90;;;;;;4135475;28;20566;-73
2023/04/03 00:59:58;;;;;;;5.97;1.00;;;2.10;99.90;;;;;;4135888;28;20471;-72
2023/04/03 01:02:01;;;;;;;4.70;1.20;;;2.10;99.90;;;;;;4135397;28;20491;-72
2023/04/03 01:04:05;;;;;;;4.30;1.53;;;2.10;99.90;;;;;;4136392;28;20474;-73
2023/04/03 01:06:07;;;;;;;4.43;1.10;;;2.00;99.90;;;;;;4140046;28;20839;-72
2023/04/03 01:08:09;;;;;;;3.30;0.97;;;2.00;99.90;;;;;;4133917;28;20463;-71
2023/04/03 01:10:15;;;;;;;4.67;1.20;;;1.90;99.90;;;;;;4136623;28;20495;-72
2023/04/03 01:12:20;;;;;;;4.37;1.20;;;1.90;99.90;;;;;;4135402;28;20518;-72
2023/04/03 01:14:22;;;;;;;2.77;1.07;;;1.90;99.90;;;;;;4136415;28;20557;-72
2023/04/03 01:16:24;;;;;;;3.20;1.20;;;1.80;99.90;;;;;;4132952;28;20496;-72
2023/04/03 01:18:26;;;;;;;4.97;1.00;;;1.80;99.90;;;;;;4134458;28;20864;-72
2023/04/03 01:20:59;;;;;;;4.03;1.23;;;1.80;99.90;;;;;;4136832;28;21027;-72
2023/04/03 01:23:12;;;;;;;3.53;1.00;;;1.70;99.90;;;;;;4103015;28;20507;-72
2023/04/03 01:25:14;;;;;;;1.70;1.00;;;1.70;99.90;;;;;;4136584;28;20841;-71
2023/04/03 01:27:17;;;;;;;3.33;1.00;;;1.70;99.90;;;;;;4137301;28;20511;-71
2023/04/03 01:29:20;;;;;;;4.27;1.40;;;1.70;99.90;;;;;;4139680;28;20475;-72
2023/04/03 01:31:26;;;;;;;2.10;0.93;;;1.60;99.90;;;;;;4137822;28;20508;-72
2023/04/03 01:33:32;;;;;;;3.20;1.27;;;1.60;99.90;;;;;;4139434;28;20462;-72
2023/04/03 01:35:34;;;;;;;4.07;1.20;;;1.60;99.90;;;;;;4137859;28;20486;-72
2023/04/03 01:37:36;;;;;;;3.60;1.23;;;1.60;99.90;;;;;;4139352;28;20474;-72
2023/04/03 01:39:37;;;;;;;3.60;0.90;;;1.60;99.90;;;;;;4138811;28;20471;-73
2023/04/03 01:41:39;;;;;;;4.07;0.93;;;1.60;99.90;;;;;;4130939;28;20468;-72
2023/04/03 01:43:41;;;;;;;4.70;1.47;;;1.50;99.90;;;;;;4141469;28;20481;-72
2023/04/03 01:45:43;;;;;;;6.03;1.27;;;1.50;99.90;;;;;;4142059;28;20574;-72
2023/04/03 01:47:45;;;;;;;4.73;1.37;;;1.40;99.90;;;;;;4138836;28;20463;-73
2023/04/03 01:49:48;;;;;;;3.83;1.23;;;1.40;99.90;;;;;;4139553;28;20461;-72
2023/04/03 01:51:50;;;;;;;3.03;1.20;;;1.50;99.90;;;;;;4137967;28;20914;-72
2023/04/03 01:53:52;;;;;;;2.33;1.17;;;1.30;99.90;;;;;;4140222;28;21245;-72
2023/04/03 01:55:54;;;;;;;2.77;1.00;;;1.40;99.90;;;;;;4139414;28;20922;-72
2023/04/03 01:57:56;;;;;;;2.00;0.90;;;1.30;99.90;;;;;;4138303;28;20554;-73
2023/04/03 01:59:58;;;;;;;3.40;1.13;;;1.30;99.90;;;;;;4137700;28;20467;-72
2023/04/03 02:02:00;;;;;;;4.57;1.30;;;1.30;99.90;;;;;;4136092;28;20505;-72
2023/04/03 02:04:02;;;;;;;3.93;1.27;;;1.30;99.90;;;;;;4139504;28;21022;-72
2023/04/03 02:06:05;;;;;;;3.27;1.17;;;1.20;99.90;;;;;;4138111;28;20491;-72
2023/04/03 02:08:07;;;;;;;3.10;1.20;;;1.20;99.90;;;;;;4137944;28;20843;-72
2023/04/03 02:10:10;;;;;;;3.13;1.00;;;1.20;99.90;;;;;;4140967;28;20469;-71
2023/04/03 02:12:12;;;;;;;4.07;1.20;;;1.20;99.90;;;;;;4135977;28;20478;-72
2023/04/03 02:14:14;;;;;;;2.53;1.00;;;1.20;99.90;;;;;;4136230;28;20553;-72
2023/04/03 02:16:16;;;;;;;2.50;1.07;;;1.20;99.90;;;;;;4138221;28;20829;-72
2023/04/03 02:18:18;;;;;;;2.87;1.03;;;1.20;99.90;;;;;;4140175;28;20458;-72
2023/04/03 02:20:20;;;;;;;4.73;1.27;;;1.20;99.90;;;;;;4136468;28;20478;-72
2023/04/03 02:22:23;;;;;;;3.67;1.47;;;1.10;99.90;;;;;;4136678;28;20453;-72
2023/04/03 02:24:25;;;;;;;3.57;1.17;;;1.20;99.90;;;;;;4138203;28;20505;-71
2023/04/03 02:26:27;;;;;;;5.40;1.30;;;1.10;99.90;;;;;;4136620;28;20458;-72
2023/04/03 02:28:29;;;;;;;6.10;1.70;;;1.10;99.90;;;;;;4141371;28;20494;-72
2023/04/03 02:30:31;;;;;;;5.07;1.10;;;1.30;99.90;;;;;;4138984;28;20501;-72
2023/04/03 02:32:33;;;;;;;3.53;1.10;;;1.10;99.90;;;;;;4134349;28;20462;-72
2023/04/03 02:34:35;;;;;;;8.33;1.90;;;1.00;99.90;;;;;;4137285;28;20516;-72
2023/04/03 02:36:37;;;;;;;4.10;1.00;;;1.00;99.90;;;;;;4136956;28;20553;-71
2023/04/03 02:38:40;;;;;;;3.43;1.30;;;1.00;99.90;;;;;;4138315;28;20971;-72
2023/04/03 02:40:42;;;;;;;2.37;1.07;;;1.00;99.90;;;;;;4137835;28;20461;-72
2023/04/03 02:42:44;;;;;;;4.43;1.10;;;1.00;99.90;;;;;;4127666;28;20497;-72
2023/04/03 02:44:46;;;;;;;2.50;1.17;;;1.00;99.90;;;;;;4139013;28;20490;-72
2023/04/03 02:46:48;;;;;;;6.13;1.17;;;0.90;99.90;;;;;;4136975;28;20461;-72
2023/04/03 02:48:50;;;;;;;3.43;1.17;;;0.90;99.90;;;;;;4138377;28;20503;-73
2023/04/03 02:50:52;;;;;;;4.87;1.03;;;0.90;99.90;;;;;;4137313;28;20517;-72
2023/04/03 02:52:54;;;;;;;4.07;1.10;;;0.80;99.90;;;;;;4139612;28;20496;-72
2023/04/03 02:54:57;;;;;;;4.30;1.20;;;0.80;99.90;;;;;;4137160;28;20482;-72
2023/04/03 02:57:00;;;;;;;6.93;1.20;;;0.80;99.90;;;;;;4139521;28;20540;-73
2023/04/03 02:59:02;;;;;;;5.67;1.50;;;0.80;99.90;;;;;;4132608;28;20504;-72
2023/04/03 03:01:04;;;;;;;3.83;0.93;;;0.70;99.90;;;;;;4139867;28;20462;-72
2023/04/03 03:03:06;;;;;;;8.17;1.27;;;0.70;99.90;;;;;;4132909;28;20513;-72
2023/04/03 03:05:08;;;;;;;4.77;1.30;;;0.70;99.90;;;;;;4136569;28;20482;-72
2023/04/03 03:07:11;;;;;;;3.83;1.00;;;0.70;99.90;;;;;;4122305;28;20444;-72
2023/04/03 03:09:12;;;;;;;4.07;1.40;;;0.70;99.90;;;;;;4137117;28;20461;-73
2023/04/03 03:11:16;;;;;;;1.50;0.93;;;0.60;99.90;;;;;;4137259;28;20454;-72
2023/04/03 03:13:18;;;;;;;2.47;1.20;;;0.60;99.90;;;;;;4136889;28;20498;-73
2023/04/03 03:15:20;;;;;;;2.60;1.00;;;0.50;99.90;;;;;;4114264;28;20926;-72
2023/04/03 03:17:21;;;;;;;1.77;1.00;;;0.50;99.90;;;;;;4134724;28;20501;-73
2023/04/03 03:19:23;;;;;;;3.73;0.93;;;0.50;99.90;;;;;;4129986;28;20494;-73
2023/04/03 03:21:25;;;;;;;3.23;1.20;;;0.50;99.90;;;;;;4135915;28;20491;-73
2023/04/03 03:23:29;;;;;;;3.90;1.60;;;0.50;99.90;;;;;;4137607;28;20539;-72
2023/04/03 03:25:31;;;;;;;5.90;1.30;;;0.40;99.90;;;;;;4136977;28;20483;-72
2023/04/03 03:27:34;;;;;;;4.67;1.30;;;0.40;99.90;;;;;;4135543;28;20846;-74
2023/04/03 03:29:38;;;;;;;6.27;1.30;;;0.30;99.90;;;;;;4135192;28;20452;-72
2023/04/03 03:31:40;;;;;;;3.83;1.30;;;0.30;99.90;;;;;;4136689;28;20606;-72
2023/04/03 03:33:42;;;;;;;1.67;1.00;;;0.30;99.90;;;;;;4136719;28;20479;-73
2023/04/03 03:35:44;;;;;;;4.43;1.50;;;0.30;99.90;;;;;;4134962;28;20514;-73
2023/04/03 03:37:46;;;;;;;2.73;1.10;;;0.30;99.90;;;;;;4136209;28;20466;-73
2023/04/03 03:39:47;;;;;;;2.63;1.10;;;0.20;99.90;;;;;;4137724;28;20452;-72
2023/04/03 03:41:50;;;;;;;2.63;0.90;;;0.20;99.90;;;;;;4136003;28;20456;-73
2023/04/03 03:43:53;;;;;;;5.10;1.30;;;0.20;99.90;;;;;;4134561;28;20491;-72
2023/04/03 03:45:55;;;;;;;4.87;1.10;;;0.10;99.90;;;;;;4137514;28;20567;-73
2023/04/03 03:47:57;;;;;;;3.20;1.40;;;0.10;99.90;;;;;;4137605;28;20535;-72
2023/04/03 03:50:02;;;;;;;3.73;1.30;;;0.10;99.90;;;;;;4135635;28;20573;-73
2023/04/03 03:52:04;;;;;;;4.47;1.40;;;0.00;99.90;;;;;;4136386;28;20464;-73
2023/04/03 03:54:07;;;;;;;2.23;1.00;;;0.00;99.90;;;;;;4138637;28;20465;-73
2023/04/03 03:56:08;;;;;;;4.73;1.53;;;0.00;99.90;;;;;;4135173;28;20482;-73
2023/04/03 03:58:10;;;;;;;3.03;1.27;;;0.00;99.90;;;;;;4125422;28;20469;-72
2023/04/03 04:00:15;;;;;;;5.07;1.20;;;0.00;99.90;;;;;;4137210;28;20452;-73
2023/04/03 04:02:19;;;;;;;3.60;1.03;;;-0.10;99.90;;;;;;4132821;28;20454;-73
2023/04/03 04:04:21;;;;;;;6.37;1.37;;;-0.10;99.90;;;;;;4135323;28;20492;-73
2023/04/03 04:06:23;;;;;;;4.20;1.20;;;-0.10;99.90;;;;;;4135007;28;20555;-72
2023/04/03 04:08:25;;;;;;;2.67;1.13;;;-0.10;99.90;;;;;;4136393;28;20540;-72
2023/04/03 04:10:27;;;;;;;3.50;1.27;;;-0.20;99.90;;;;;;4136075;28;20484;-73
2023/04/03 04:12:29;;;;;;;3.47;1.87;;;-0.20;99.90;;;;;;4137900;28;20495;-73
2023/04/03 04:14:31;;;;;;;6.53;1.33;;;-0.20;99.90;;;;;;4134576;28;21044;-72
2023/04/03 04:16:34;;;;;;;5.23;1.83;;;-0.30;99.90;;;;;;4138282;28;20552;-72
2023/04/03 04:18:36;;;;;;;4.50;1.53;;;-0.30;99.90;;;;;;4134653;28;21060;-72
2023/04/03 04:20:38;;;;;;;3.83;1.40;;;-0.30;99.90;;;;;;4135313;28;20461;-72
2023/04/03 04:22:40;;;;;;;4.00;1.30;;;-0.30;99.90;;;;;;4134587;28;20460;-72
2023/04/03 04:24:42;;;;;;;3.17;1.13;;;-0.40;99.90;;;;;;4136455;28;20532;-72
2023/04/03 04:26:44;;;;;;;2.63;0.83;;;-0.30;99.90;;;;;;4134385;28;20543;-73
2023/04/03 04:28:46;;;;;;;4.27;1.50;;;-0.40;99.90;;;;;;4132443;28;20565;-73
2023/04/03 04:30:48;;;;;;;3.27;1.20;;;-0.40;99.90;;;;;;4134069;28;20483;-73
2023/04/03 04:32:51;;;;;;;3.27;1.43;;;-0.50;99.90;;;;;;4136285;28;20534;-73
2023/04/03 04:34:53;;;;;;;3.77;1.10;;;-0.50;99.90;;;;;;4136725;28;20484;-73
2023/04/03 04:36:55;;;;;;;3.53;1.20;;;-0.50;99.90;;;;;;4136142;28;20460;-73
2023/04/03 04:38:58;;;;;;;8.57;1.40;;;-0.50;99.90;;;;;;4122034;28;20970;-73
2023/04/03 04:41:00;;;;;;;5.80;1.50;;;-0.50;99.90;;;;;;4133488;28;20464;-73
2023/04/03 04:43:02;;;;;;;4.13;1.30;;;-0.60;99.90;;;;;;4136565;28;20488;-73
2023/04/03 04:45:04;;;;;;;5.53;1.40;;;-0.60;99.90;;;;;;4137729;28;20534;-72
2023/04/03 04:47:06;;;;;;;4.37;1.33;;;-0.60;99.90;;;;;;4134277;28;20554;-72
2023/04/03 04:49:09;;;;;;;6.23;1.43;;;-0.60;99.90;;;;;;4138256;28;20996;-73
2023/04/03 04:51:12;;;;;;;4.80;1.20;;;-0.60;99.90;;;;;;4135773;28;20460;-73
2023/04/03 04:53:14;;;;;;;3.83;1.30;;;-0.60;99.90;;;;;;4118215;28;21299;-73
2023/04/03 04:55:16;;;;;;;3.67;1.30;;;-0.70;99.90;;;;;;4152543;28;20480;-73
2023/04/03 04:57:18;;;;;;;4.47;1.60;;;-0.70;99.90;;;;;;4140675;28;20556;-73
2023/04/03 04:59:20;;;;;;;5.60;1.30;;;-0.70;99.90;;;;;;4137030;28;20978;-73
2023/04/03 05:01:21;;;;;;;4.20;1.40;;;-0.70;99.90;;;;;;4139762;28;20468;-72
2023/04/03 05:03:23;;;;;;;5.40;1.40;;;-0.70;99.90;;;;;;4137642;28;21005;-73
2023/04/03 05:05:27;;;;;;;3.27;1.20;;;-0.70;99.90;;;;;;4140580;28;20535;-73
2023/04/03 05:07:28;;;;;;;3.50;1.20;;;-0.80;99.90;;;;;;4137872;28;20456;-72
2023/04/03 05:09:30;;;;;;;3.53;1.30;;;-0.60;99.90;;;;;;4140484;28;20518;-73
2023/04/03 05:11:32;;;;;;;5.07;1.00;;;-0.80;99.90;;;;;;4139887;28;20463;-73
2023/04/03 05:13:34;;;;;;;4.03;1.40;;;-0.80;99.90;;;;;;4140471;28;20487;-73
2023/04/03 05:15:36;;;;;;;6.67;1.60;;;-0.80;99.90;;;;;;4141429;28;20555;-73
2023/04/03 05:17:38;;;;;;;3.23;1.10;;;-0.80;99.90;;;;;;4140875;28;20499;-72
2023/04/03 05:19:40;;;;;;;3.27;1.17;;;-0.80;99.90;;;;;;4118535;28;20548;-72
2023/04/03 05:21:43;;;;;;;1.93;1.10;;;-0.90;99.90;;;;;;4138456;28;20470;-71
2023/04/03 05:23:45;;;;;;;4.27;1.30;;;-0.90;99.90;;;;;;4140290;28;21323;-73
2023/04/03 05:25:48;;;;;;;9.97;1.50;;;-0.90;99.90;;;;;;4138142;28;20484;-73
2023/04/03 05:27:50;;;;;;;3.23;1.33;;;-0.90;99.90;;;;;;4136660;28;20813;-73
2023/04/03 05:29:54;;;;;;;4.90;1.40;;;-0.90;99.90;;;;;;4138573;28;20554;-72
2023/04/03 05:31:56;;;;;;;4.70;1.40;;;-0.90;99.90;;;;;;4141242;28;20487;-73
2023/04/03 05:33:58;;;;;;;2.83;1.23;;;-0.90;99.90;;;;;;4134059;28;20985;-72
2023/04/03 05:36:03;;;;;;;4.17;1.37;;;-0.90;99.90;;;;;;4136327;28;20470;-73
2023/04/03 05:38:07;;;;;;;3.83;1.30;;;-0.90;99.90;;;;;;4137346;28;20459;-73
2023/04/03 05:40:10;;;;;;;5.73;1.23;;;-0.90;99.90;;;;;;4137551;28;20547;-71
2023/04/03 05:42:12;;;;;;;6.33;1.60;;;-0.90;99.90;;;;;;4141019;28;21079;-71
2023/04/03 05:44:14;;;;;;;3.10;1.10;;;-0.90;99.90;;;;;;4143887;28;20917;-71
2023/04/03 05:46:18;;;;;;;6.50;1.57;;;-0.90;99.90;;;;;;4129399;28;20567;-71
2023/04/03 05:48:19;;;;;;;3.73;1.00;;;-0.80;99.90;;;;;;4143856;28;20463;-72
2023/04/03 05:50:21;;;;;;;3.63;1.20;;;-0.90;99.90;;;;;;4145148;28;20470;-72
2023/04/03 05:52:26;;;;;;;5.27;1.30;;;-0.90;99.90;;;;;;4143738;28;20807;-72
2023/04/03 05:54:31;;;;;;;3.03;1.10;;;-0.90;99.90;;;;;;4147765;28;20485;-71
2023/04/03 05:56:33;;;;;;;3.50;1.20;;;-0.80;99.90;;;;;;4135413;28;21071;-71
2023/04/03 05:58:34;;;;;;;7.20;1.70;;;-0.80;99.90;;;;;;4138129;28;20493;-71
2023/04/03 06:00:36;;;;;;;7.90;1.50;;;-0.80;99.90;;;;;;4141771;28;20457;-71
2023/04/03 06:02:38;;;;;;;7.97;1.73;;;-0.80;99.90;;;;;;4144339;28;20459;-71
2023/04/03 06:04:40;;;;;;;6.33;1.73;;;-0.80;99.90;;;;;;4154594;28;20499;-71
2023/04/03 06:06:47;;;;;;;5.30;1.60;;;-0.80;99.90;;;;;;4139546;28;20488;-71
2023/04/03 06:08:49;;;;;;;4.10;1.20;;;-0.70;99.90;;;;;;4138947;28;20469;-71
2023/04/03 06:10:53;;;;;;;3.60;1.10;;;-0.70;99.90;;;;;;4146842;28;20455;-71
2023/04/03 06:12:55;;;;;;;2.30;1.10;;;-0.70;99.90;;;;;;4137004;28;21267;-71
2023/04/03 06:14:57;;;;;;;3.27;1.30;;;-0.70;99.90;;;;;;4137482;28;20563;-71
2023/04/03 06:16:59;;;;;;;4.57;1.20;;;-0.70;99.90;;;;;;4141351;28;20550;-72
2023/04/03 06:19:01;;;;;;;6.73;1.40;;;-0.70;99.90;;;;;;4138912;28;20453;-71
2023/04/03 06:21:03;;;;;;;2.80;1.20;;;-0.60;99.90;;;;;;4145974;28;20507;-72
2023/04/03 06:23:05;;;;;;;8.63;1.63;;;-0.60;99.90;;;;;;4139719;28;20468;-73
2023/04/03 06:25:09;;;;;;;2.33;0.90;;;-0.60;99.90;;;;;;4140982;28;20542;-71
2023/04/03 06:27:12;;;;;;;4.53;1.10;;;-0.50;99.90;;;;;;4148760;28;20476;-71
2023/04/03 06:29:14;;;;;;;3.83;1.13;;;-0.70;99.90;;;;;;4140707;28;20557;-71
2023/04/03 06:31:16;;;;;;;2.63;1.20;;;-0.50;99.90;;;;;;4137628;28;20464;-72
2023/04/03 06:33:18;;;;;;;5.03;1.23;;;-0.50;99.90;;;;;;4137330;28;20501;-70
2023/04/03 06:35:20;;;;;;;6.33;1.50;;;-0.50;99.90;;;;;;4145101;28;20483;-71
2023/04/03 06:37:25;;;;;;;3.37;0.93;;;-0.50;99.90;;;;;;4138877;28;20939;-71
2023/04/03 06:39:28;;;;;;;3.30;1.00;;;-0.40;99.90;;;;;;4150818;28;20443;-72
2023/04/03 06:41:29;;;;;;;4.60;1.10;;;-0.40;99.90;;;;;;4145954;28;20456;-71
2023/04/03 06:43:33;;;;;;;4.30;1.00;;;-0.40;99.90;;;;;;4143149;28;21030;-71
2023/04/03 06:45:36;;;;;;;4.93;1.03;;;-0.40;99.90;;;;;;4138751;28;21026;-72
2023/04/03 06:47:37;;;;;;;3.33;1.20;;;-0.40;99.90;;;;;;4146477;28;20502;-72
2023/04/03 06:49:39;;;;;;;10.40;1.40;;;-0.30;99.90;;;;;;4137095;28;20446;-73
2023/04/03 06:51:41;;;;;;;4.27;1.07;;;-0.30;99.90;;;;;;4142281;28;20469;-71
2023/04/03 06:53:43;;;;;;;5.47;1.10;;;-0.30;99.90;;;;;;4149191;28;20556;-71
2023/04/03 06:55:46;;;;;;;3.63;1.00;;;-0.20;99.90;;;;;;4140481;28;20506;-71
2023/04/03 06:57:48;;;;;;;7.80;1.37;;;-0.20;99.90;;;;;;4141949;28;20516;-70
2023/04/03 06:59:52;;;;;;;4.20;1.40;;;-0.20;99.90;;;;;;4134585;28;20504;-71
2023/04/03 07:01:54;;;;;;;3.90;1.27;;;-0.10;99.90;;;;;;4129315;28;20458;-71
2023/04/03 07:03:56;;;;;;;3.23;1.23;;;-0.10;99.90;;;;;;4142884;28;20474;-70
2023/04/03 07:05:58;;;;;;;4.10;1.27;;;-0.10;99.90;;;;;;4143986;28;20496;-70
2023/04/03 07:08:00;;;;;;;3.70;1.00;;;-0.10;99.90;;;;;;4148013;28;20983;-70
2023/04/03 07:10:02;;;;;;;4.77;1.17;;;0.00;99.90;;;;;;4148220;28;20454;-70
2023/04/03 07:12:04;;;;;;;3.33;1.30;;;0.00;99.90;;;;;;4141818;28;20453;-70
2023/04/03 07:14:07;;;;;;;4.73;1.33;;;0.00;99.90;;;;;;4140910;28;20804;-70
2023/04/03 07:16:11;;;;;;;5.30;1.40;;;0.10;99.90;;;;;;4139424;28;20540;-70
2023/04/03 07:18:13;;;;;;;2.33;0.97;;;0.10;99.90;;;;;;4138578;28;20816;-71
2023/04/03 07:20:15;;;;;;;2.07;0.90;;;0.10;99.90;;;;;;4140684;28;21008;-71
2023/04/03 07:22:18;;;;;;;3.77;1.03;;;0.20;99.90;;;;;;4139542;28;20454;-70
2023/04/03 07:24:20;;;;;;;2.77;0.70;;;0.20;99.90;;;;;;4142401;28;20828;-71
2023/04/03 07:26:22;;;;;;;5.37;0.90;;;0.30;99.90;;;;;;4144052;28;20465;-71
2023/04/03 07:28:25;;;;;;;3.17;0.97;;;0.30;99.90;;;;;;4143697;28;20498;-71
2023/04/03 07:30:27;;;;;;;3.40;0.97;;;0.40;99.90;;;;;;4132755;28;20851;-70
2023/04/03 07:32:31;;;;;;;3.60;1.00;;;0.40;99.90;;;;;;4144332;28;20997;-71
2023/04/03 07:34:33;;;;;;;5.17;1.13;;;0.40;99.90;;;;;;4135997;28;20517;-70
2023/04/03 07:36:35;;;;;;;2.20;1.00;;;0.50;99.90;;;;;;4136754;28;20458;-70
2023/04/03 07:38:38;;;;;;;3.73;0.90;;;0.50;99.90;;;;;;4140578;28;20466;-70
2023/04/03 07:40:41;;;;;;;4.00;1.10;;;0.60;99.90;;;;;;4140551;28;20458;-71
2023/04/03 07:42:42;;;;;;;6.37;1.10;;;0.60;99.90;;;;;;4139775;28;20894;-70
2023/04/03 07:44:45;;;;;;;6.77;1.27;;;0.70;99.90;;;;;;4141997;28;20497;-71
2023/04/03 07:46:48;;;;;;;7.70;2.23;;;0.70;99.90;;;;;;4144331;28;20834;-71
2023/04/03 07:48:51;;;;;;;4.40;1.27;;;0.80;99.90;;;;;;4138786;28;20479;-71
2023/04/03 07:50:53;;;;;;;9.27;1.60;;;0.80;99.90;;;;;;4137010;28;20537;-70
2023/04/03 07:52:57;;;;;;;3.73;1.30;;;0.90;99.90;;;;;;4136282;28;20458;-70
2023/04/03 07:54:59;;;;;;;4.23;1.00;;;1.00;99.90;;;;;;4140027;28;20521;-71
2023/04/03 07:57:01;;;;;;;9.03;1.37;;;1.10;99.90;;;;;;4135902;28;20450;-71
2023/04/03 07:59:03;;;;;;;6.07;1.60;;;1.10;99.90;;;;;;4137504;28;20552;-70
2023/04/03 08:01:05;;;;;;;2.97;1.30;;;1.20;99.90;;;;;;4135021;28;20486;-70
2023/04/03 08:03:10;;;;;;;5.07;1.50;;;1.30;99.90;;;;;;4142313;28;20552;-70
2023/04/03 08:05:14;;;;;;;4.73;1.40;;;1.30;99.90;;;;;;4136223;28;20517;-70
2023/04/03 08:07:16;;;;;;;4.67;1.30;;;1.40;99.90;;;;;;4135799;28;20459;-70
2023/04/03 08:09:18;;;;;;;3.83;1.30;;;1.50;99.90;;;;;;4142775;28;20560;-70
2023/04/03 08:11:20;;;;;;;7.03;1.50;;;1.50;99.90;;;;;;4140589;28;20466;-70
2023/04/03 08:13:23;;;;;;;5.37;1.57;;;1.50;99.90;;;;;;4140017;28;20477;-71
2023/04/03 08:15:25;;;;;;;3.70;1.30;;;1.60;99.90;;;;;;4140271;28;20470;-71
2023/04/03 08:17:27;;;;;;;2.87;1.20;;;1.70;99.90;;;;;;4140005;28;20856;-70
2023/04/03 08:19:29;;;;;;;3.97;1.30;;;1.80;99.90;;;;;;4141541;28;20474;-70
2023/04/03 08:21:32;;;;;;;2.50;1.10;;;2.10;99.90;;;;;;4124902;28;20457;-71
2023/04/03 08:23:34;;;;;;;5.07;1.50;;;2.00;99.90;;;;;;4138709;28;20941;-71
2023/04/03 08:25:39;;;;;;;3.43;1.43;;;2.10;99.90;;;;;;4149149;28;20485;-70
2023/04/03 08:27:41;;;;;;;5.70;1.70;;;2.20;99.90;;;;;;4124668;28;20470;-71
2023/04/03 08:29:43;;;;;;;2.93;1.57;;;2.20;99.90;;;;;;4146355;28;20459;-71
2023/04/03 08:31:46;;;;;;;3.50;1.50;;;2.30;99.90;;;;;;4131000;28;20926;-71
2023/04/03 08:33:49;;;;;;;4.10;1.23;;;2.30;99.90;;;;;;4141408;28;20455;-71
2023/04/03 08:35:50;;;;;;;2.73;1.20;;;2.30;99.90;;;;;;4140600;28;20562;-71
2023/04/03 08:37:54;;;;;;;4.23;1.30;;;2.30;99.90;;;;;;4140429;28;20462;-71
2023/04/03 08:39:56;;;;;;;4.23;1.57;;;2.40;99.90;;;;;;4119119;28;20455;-73
2023/04/03 08:42:00;;;;;;;2.97;1.10;;;2.30;99.90;;;;;;4141380;28;20453;-72
2023/04/03 08:44:16;;;;;;;2.53;1.10;;;2.30;99.90;;;;;;4139426;28;20466;-71
2023/04/03 08:46:20;;;;;;;7.83;1.20;;;2.40;99.90;;;;;;4137633;28;20486;-73
2023/04/03 08:48:28;;;;;;;2.83;1.10;;;2.30;99.90;;;;;;4139803;28;20497;-72
2023/04/03 08:50:35;;;;;;;4.17;1.33;;;2.40;99.90;;;;;;4137261;28;20485;-72
2023/04/03 08:52:41;;;;;;;5.63;1.20;;;2.40;99.90;;;;;;4139230;28;20537;-72
2023/04/03 08:54:51;;;;;;;4.67;1.07;;;2.40;99.90;;;;;;4139622;28;20500;-72
2023/04/03 08:56:54;;;;;;;6.23;1.40;;;2.40;99.90;;;;;;4137002;28;20458;-71
2023/04/03 08:58:58;;;;;;;6.20;1.70;;;2.50;99.90;;;;;;4141245;28;20470;-72
2023/04/03 09:01:04;;;;;;;8.60;2.00;;;2.60;99.90;;;;;;4142277;28;20475;-72
2023/04/03 09:03:15;;;;;;;4.33;1.70;;;2.70;99.90;;;;;;4139095;28;20549;-72
2023/04/03 09:05:20;;;;;;;8.57;2.20;;;2.80;99.90;;;;;;4125948;28;20914;-71
2023/04/03 09:07:31;;;;;;;5.70;1.90;;;3.00;99.90;;;;;;4139610;28;20534;-71
2023/04/03 09:09:38;;;;;;;5.00;1.43;;;3.20;99.90;;;;;;4149646;28;20505;-71
2023/04/03 09:11:52;;;;;;;11.07;1.50;;;3.30;99.90;;;;;;4138008;28;20446;-72
2023/04/03 09:14:00;;;;;;;2.73;1.27;;;3.50;99.90;;;;;;4141179;28;20961;-72
2023/04/03 09:16:06;;;;;;;2.30;1.13;;;3.60;99.90;;;;;;4138739;28;20465;-71
2023/04/03 09:18:16;;;;;;;3.17;1.20;;;3.70;99.90;;;;;;4136810;28;20451;-72
2023/04/03 09:20:27;;;;;;;3.90;1.23;;;3.80;99.90;;;;;;4119467;28;20519;-72
2023/04/03 09:22:33;;;;;;;3.27;1.00;;;3.80;99.90;;;;;;4139413;28;20549;-71
2023/04/03 09:24:36;;;;;;;6.30;1.37;;;3.90;99.90;;;;;;4139738;28;20567;-71
2023/04/03 09:26:44;;;;;;;4.03;1.17;;;3.80;99.90;;;;;;4136640;28;20489;-72
2023/04/03 09:28:48;;;;;;;4.27;1.07;;;3.80;99.90;;;;;;4139869;28;21249;-72
2023/04/03 09:30:50;;;;;;;5.10;1.00;;;3.80;99.90;;;;;;4138607;28;20534;-71
2023/04/03 09:32:53;;;;;;;2.00;0.93;;;3.80;99.90;;;;;;4136424;28;20890;-72
2023/04/03 09:34:59;;;;;;;8.70;1.53;;;3.80;99.90;;;;;;4138301;28;20917;-71
2023/04/03 09:37:05;;;;;;;3.37;0.93;;;3.80;99.90;;;;;;4138821;28;20449;-72
2023/04/03 09:39:13;;;;;;;3.13;1.10;;;3.70;99.90;;;;;;4137532;28;20874;-72
2023/04/03 09:41:23;;;;;;;1.87;0.80;;;3.70;99.90;;;;;;4140988;28;20486;-71
2023/04/03 09:43:30;;;;;;;2.00;1.00;;;3.80;99.90;;;;;;4143971;28;21037;-71
2023/04/03 09:45:36;;;;;;;2.80;1.00;;;3.80;99.90;;;;;;4138230;28;20537;-72
2023/04/03 09:47:38;;;;;;;4.10;0.90;;;3.90;99.90;;;;;;4141982;28;20952;-72
2023/04/03 09:49:40;;;;;;;2.70;0.90;;;4.00;99.90;;;;;;4136167;28;20466;-71
2023/04/03 09:51:43;;;;;;;6.50;1.43;;;4.00;99.90;;;;;;4138673;28;20454;-72
2023/04/03 09:53:46;;;;;;;6.10;1.13;;;4.10;99.90;;;;;;4137766;28;20594;-71
2023/04/03 09:55:48;;;;;;;4.53;0.97;;;4.20;99.90;;;;;;4142439;28;20534;-71
2023/04/03 09:57:51;;;;;;;2.67;1.10;;;4.20;99.90;;;;;;4136731;28;20554;-71
2023/04/03 09:59:59;;;;;;;3.77;1.20;;;4.20;99.90;;;;;;4121028;28;20483;-72
2023/04/03 10:02:05;;;;;;;3.87;1.57;;;4.20;99.90;;;;;;4140345;28;20472;-71
2023/04/03 10:04:09;;;;;;;5.87;2.17;;;4.20;99.90;;;;;;4139574;28;20472;-71
2023/04/03 10:06:24;;;;;;;6.30;2.00;;;4.30;99.90;;;;;;4120342;28;20672;-72
2023/04/03 10:08:30;;;;;;;7.13;1.77;;;4.40;99.90;;;;;;4121885;28;20449;-72
2023/04/03 10:10:32;;;;;;;3.97;1.30;;;4.50;99.90;;;;;;4134493;28;20490;-71
2023/04/03 10:12:34;;;;;;;5.30;1.57;;;4.60;99.90;;;;;;4137729;28;20553;-72
2023/04/03 10:14:38;;;;;;;3.53;1.50;;;4.70;99.90;;;;;;4138432;28;20541;-71
2023/04/03 10:16:45;;;;;;;5.07;1.03;;;4.70;99.90;;;;;;4135698;28;20495;-72
2023/04/03 10:18:57;;;;;;;5.33;1.20;;;4.80;99.90;;;;;;4137862;28;20451;-71
2023/04/03 10:21:06;;;;;;;3.27;1.10;;;4.80;99.90;;;;;;4117964;28;20474;-72
2023/04/03 10:23:22;;;;;;;3.27;1.30;;;5.00;99.90;;;;;;4135948;28;20453;-72
2023/04/03 10:25:32;;;;;;;2.40;1.10;;;5.00;99.90;;;;;;4138234;28;20476;-71
2023/04/03 10:27:45;;;;;;;3.27;0.90;;;5.10;99.90;;;;;;4117996;28;21483;-71
2023/04/03 10:29:54;;;;;;;2.50;1.10;;;5.20;99.90;;;;;;4137029;28;20466;-72
2023/04/03 10:32:05;;;;;;;5.40;1.10;;;5.20;99.90;;;;;;4136612;28;20519;-72
2023/04/03 10:34:18;;;;;;;2.03;0.73;;;5.30;99.90;;;;;;4138744;28;20943;-72
2023/04/03 10:36:28;;;;;;;3.83;1.60;;;5.60;99.90;;;;;;4137123;28;20514;-71
2023/04/03 10:38:38;;;;;;;6.13;1.53;;;5.80;99.90;;;;;;4124154;28;20456;-72
2023/04/03 10:40:48;;;;;;;7.67;1.50;;;5.90;99.90;;;;;;4121321;28;20526;-72
2023/04/03 10:42:57;;;;;;;4.73;1.50;;;6.00;99.90;;;;;;4139308;28;20481;-72
2023/04/03 10:45:15;;;;;;;7.27;1.80;;;6.00;99.90;;;;;;4136509;28;20481;-72
2023/04/03 10:47:21;;;;;;;3.57;1.23;;;6.20;99.90;;;;;;4135995;28;20521;-71